Ulladulla, Australia
Current Conditions -  °F | °C
As of 7:00 PM on Sunday 26 Oct 2014 (Local Time) from YSNW Reporting Station
Overcast Overcast  
Wind Chill: 64°   Ceiling: 1400
Heat Index: 64°   Visibility: 6mi
Dew Point: 63°   Wind: 8mph
Humidity: 94%   Direction: 170°S
Pressure: 29.88"   Gusts: NA
Location:  35.36°S, 150.47°E
Report Text: YSNW 260800Z AUTO 17007KT 9999 // SCT007 OVC014 18/17 Q1012
Loading
Personal Weather Stations






























Interactive Weather Map
Tropical Storm Tracking
New forecast layout! Learn more

10-Day Weather Forecast

Advertisements
Track Severe Weather on mobile